Time;durP1;ratioP1;P1;durP2;ratioP2;P2;SDS_P1;SDS_P2;PMS_P1;PMS_P2;Temp;Humidity;BMP_temperature;BMP_pressure;BME280_temperature;BME280_humidity;BME280_pressure;Samples;Min_cycle;Max_cycle;Signal;HPM_P1;HPM_P2
2023/03/17 00:01:15;;;;;;;37.67;19.63;;;1.70;99.90;;;;;;4914785;29;20209;-81
2023/03/17 00:03:45;;;;;;;37.65;19.20;;;1.60;99.90;;;;;;4920116;29;20444;-80
2023/03/17 00:06:19;;;;;;;30.77;19.40;;;1.60;99.90;;;;;;4913242;29;20242;-81
2023/03/17 00:08:46;;;;;;;43.17;22.10;;;1.60;99.90;;;;;;4908679;29;20512;-80
2023/03/17 00:11:15;;;;;;;40.95;19.73;;;1.50;99.90;;;;;;4913250;29;20430;-81
2023/03/17 00:13:45;;;;;;;30.58;17.33;;;1.50;99.90;;;;;;4911967;29;20212;-81
2023/03/17 00:16:24;;;;;;;41.22;20.90;;;1.50;99.90;;;;;;4910285;29;20288;-81
2023/03/17 00:18:52;;;;;;;45.45;19.30;;;1.50;99.90;;;;;;4908808;29;20279;-80
2023/03/17 00:21:27;;;;;;;33.72;18.70;;;1.50;99.90;;;;;;4908790;29;20255;-78
2023/03/17 00:23:55;;;;;;;64.00;28.77;;;1.50;99.90;;;;;;4908774;29;20240;-80
2023/03/17 00:26:23;;;;;;;38.40;18.98;;;1.40;99.90;;;;;;4917346;29;20220;-79
2023/03/17 00:28:50;;;;;;;45.80;22.33;;;1.50;99.90;;;;;;4919491;29;20261;-80
2023/03/17 00:31:21;;;;;;;38.63;18.27;;;1.60;99.90;;;;;;4906274;29;20213;-78
2023/03/17 00:33:51;;;;;;;42.10;20.63;;;1.50;99.90;;;;;;4909157;29;20271;-79
2023/03/17 00:36:23;;;;;;;37.35;20.55;;;1.40;99.90;;;;;;4913942;29;20229;-80
2023/03/17 00:38:51;;;;;;;39.88;20.13;;;1.30;99.90;;;;;;4919251;29;20214;-79
2023/03/17 00:41:19;;;;;;;41.50;20.20;;;1.20;99.90;;;;;;4914993;29;20273;-79
2023/03/17 00:43:45;;;;;;;37.72;19.35;;;1.30;99.90;;;;;;4919573;29;20281;-79
2023/03/17 00:46:27;;;;;;;40.35;19.48;;;1.30;99.90;;;;;;4920275;29;20275;-79
2023/03/17 00:48:54;;;;;;;45.08;21.33;;;1.20;99.90;;;;;;4911288;29;20221;-78
2023/03/17 00:51:22;;;;;;;41.60;23.08;;;1.20;99.90;;;;;;4920727;29;20229;-80
2023/03/17 00:53:49;;;;;;;35.75;19.50;;;1.30;99.90;;;;;;4916786;29;20655;-80
2023/03/17 00:56:19;;;;;;;46.40;21.08;;;1.20;99.90;;;;;;4905747;29;20303;-81
2023/03/17 00:58:47;;;;;;;36.78;21.02;;;1.10;99.90;;;;;;4918880;29;20209;-80
2023/03/17 01:01:15;;;;;;;41.13;21.40;;;1.00;99.90;;;;;;4912471;29;20213;-82
2023/03/17 01:03:43;;;;;;;41.15;21.35;;;1.10;99.90;;;;;;4911870;29;20241;-82
2023/03/17 01:06:12;;;;;;;41.75;22.73;;;1.10;99.90;;;;;;4914540;29;20697;-80
2023/03/17 01:08:40;;;;;;;47.40;22.63;;;1.00;99.90;;;;;;4912640;29;20258;-81
2023/03/17 01:11:17;;;;;;;42.75;22.27;;;0.90;99.90;;;;;;4917362;29;20275;-82
2023/03/17 01:13:45;;;;;;;37.95;21.02;;;0.90;99.90;;;;;;4918331;29;20232;-81
2023/03/17 01:16:13;;;;;;;31.42;19.65;;;0.90;99.90;;;;;;4909296;29;20236;-81
2023/03/17 01:18:40;;;;;;;40.65;21.60;;;0.90;99.90;;;;;;4925045;29;20211;-81
2023/03/17 01:21:07;;;;;;;42.47;20.35;;;0.90;99.90;;;;;;4916879;29;20280;-80
2023/03/17 01:23:34;;;;;;;34.20;19.73;;;0.90;99.90;;;;;;4922749;29;20227;-81
2023/03/17 01:26:01;;;;;;;32.15;18.67;;;1.00;99.90;;;;;;4916714;29;20200;-81
2023/03/17 01:28:28;;;;;;;46.90;23.08;;;1.00;99.90;;;;;;4911725;29;20512;-80
2023/03/17 01:30:55;;;;;;;41.53;20.73;;;1.00;99.90;;;;;;4911554;29;20201;-80
2023/03/17 01:33:22;;;;;;;41.30;21.80;;;1.00;99.90;;;;;;4917039;29;20212;-81
2023/03/17 01:35:50;;;;;;;73.82;29.33;;;1.00;99.90;;;;;;4918045;29;20240;-81
2023/03/17 01:38:17;;;;;;;38.08;20.00;;;1.10;99.90;;;;;;4906890;29;20209;-81
2023/03/17 01:40:48;;;;;;;45.58;21.48;;;1.10;99.90;;;;;;4917988;29;20657;-80
2023/03/17 01:43:22;;;;;;;36.45;19.17;;;1.20;99.90;;;;;;4906034;29;20201;-82
2023/03/17 01:46:20;;;;;;;49.53;21.48;;;1.10;99.90;;;;;;4914215;29;20212;-80
2023/03/17 01:48:59;;;;;;;53.45;25.33;;;1.10;99.90;;;;;;4911911;29;20393;-80
2023/03/17 01:51:41;;;;;;;50.25;22.05;;;1.10;99.90;;;;;;4919969;29;20212;-80
2023/03/17 01:54:15;;;;;;;46.00;21.17;;;1.00;99.90;;;;;;4916474;29;20272;-79
2023/03/17 01:56:44;;;;;;;52.85;22.88;;;0.90;99.90;;;;;;4916456;29;20224;-81
2023/03/17 01:59:16;;;;;;;42.45;21.38;;;0.90;99.90;;;;;;4924700;29;20297;-79
2023/03/17 02:01:48;;;;;;;53.13;23.88;;;1.00;99.90;;;;;;4924980;29;20240;-80
2023/03/17 02:04:16;;;;;;;45.00;22.30;;;0.90;99.90;;;;;;4918600;29;20262;-80
2023/03/17 02:06:44;;;;;;;34.22;20.02;;;0.80;99.90;;;;;;4907757;29;20212;-81
2023/03/17 02:09:25;;;;;;;42.33;19.45;;;0.80;99.90;;;;;;4914762;29;20540;-80
2023/03/17 02:11:52;;;;;;;44.72;21.60;;;0.80;99.90;;;;;;4921950;29;20209;-81
2023/03/17 02:14:19;;;;;;;42.97;21.20;;;0.80;99.90;;;;;;4913250;29;20213;-80
2023/03/17 02:16:46;;;;;;;43.13;23.67;;;0.70;99.90;;;;;;4915272;29;20366;-81
2023/03/17 02:19:13;;;;;;;40.30;24.23;;;0.70;99.90;;;;;;4913567;29;20258;-79
2023/03/17 02:21:48;;;;;;;43.38;25.30;;;0.70;99.90;;;;;;4908673;29;20197;-79
2023/03/17 02:24:40;;;;;;;38.72;22.58;;;0.60;99.90;;;;;;4918035;29;20492;-79
2023/03/17 02:27:12;;;;;;;45.30;24.50;;;0.60;99.90;;;;;;4907013;29;20212;-81
2023/03/17 02:29:39;;;;;;;37.42;21.58;;;0.60;99.90;;;;;;4910533;29;20253;-80
2023/03/17 02:32:08;;;;;;;36.65;20.65;;;0.60;99.90;;;;;;4908212;29;20494;-81
2023/03/17 02:34:36;;;;;;;37.75;20.13;;;0.50;99.90;;;;;;4912686;29;20240;-79
2023/03/17 02:37:03;;;;;;;26.00;16.70;;;0.50;99.90;;;;;;4921613;29;20401;-81
2023/03/17 02:39:31;;;;;;;32.15;17.58;;;0.50;99.90;;;;;;4911278;29;20213;-79
2023/03/17 02:41:58;;;;;;;36.72;18.80;;;0.60;99.90;;;;;;4920249;29;20358;-79
2023/03/17 02:44:25;;;;;;;40.28;20.75;;;0.50;99.90;;;;;;4911849;29;20220;-79
2023/03/17 02:46:52;;;;;;;29.55;16.88;;;0.40;99.90;;;;;;4914569;29;20529;-81
2023/03/17 02:49:21;;;;;;;26.08;14.80;;;0.50;99.90;;;;;;4917963;29;20213;-81
2023/03/17 02:51:47;;;;;;;28.75;15.52;;;0.50;99.90;;;;;;4913783;29;20224;-81
2023/03/17 02:54:15;;;;;;;28.35;15.10;;;0.60;99.90;;;;;;4920128;29;20294;-79
2023/03/17 02:56:42;;;;;;;27.27;15.68;;;0.60;99.90;;;;;;4923230;29;20232;-82
2023/03/17 02:59:10;;;;;;;22.10;14.52;;;0.60;99.90;;;;;;4909130;29;20248;-80
2023/03/17 03:01:38;;;;;;;28.75;16.58;;;0.60;99.90;;;;;;4920664;29;20580;-80
2023/03/17 03:04:06;;;;;;;19.30;12.82;;;0.40;99.90;;;;;;4921712;29;20235;-80
2023/03/17 03:06:33;;;;;;;26.27;15.27;;;0.30;99.90;;;;;;4919803;29;20338;-79
2023/03/17 03:09:00;;;;;;;22.13;14.85;;;0.30;99.90;;;;;;4919372;29;20208;-80
2023/03/17 03:11:28;;;;;;;26.60;14.50;;;0.30;99.90;;;;;;4911465;29;20505;-80
2023/03/17 03:13:55;;;;;;;27.90;13.60;;;0.40;99.90;;;;;;4911361;29;20219;-82
2023/03/17 03:16:22;;;;;;;22.48;12.43;;;0.40;99.90;;;;;;4918413;29;20291;-80
2023/03/17 03:18:50;;;;;;;25.58;14.10;;;0.30;99.90;;;;;;4909372;29;20220;-80
2023/03/17 03:21:17;;;;;;;20.67;13.38;;;0.30;99.90;;;;;;4911362;29;20227;-80
2023/03/17 03:23:44;;;;;;;19.13;11.95;;;0.30;99.90;;;;;;4905712;29;20212;-81
2023/03/17 03:26:11;;;;;;;23.48;13.98;;;0.40;99.90;;;;;;4910185;29;20211;-82
2023/03/17 03:28:38;;;;;;;24.00;11.55;;;0.30;99.90;;;;;;4919823;29;20200;-82
2023/03/17 03:31:06;;;;;;;17.00;10.50;;;0.30;99.90;;;;;;4912850;29;20231;-80
2023/03/17 03:33:33;;;;;;;18.20;11.60;;;0.40;99.90;;;;;;4920350;29;20524;-80
2023/03/17 03:36:01;;;;;;;20.02;12.30;;;0.30;99.90;;;;;;4906951;29;20239;-80
2023/03/17 03:38:28;;;;;;;17.33;11.63;;;0.30;99.90;;;;;;4910813;29;20253;-81
2023/03/17 03:40:55;;;;;;;18.83;12.95;;;0.30;99.90;;;;;;4920160;29;20223;-81
2023/03/17 03:43:22;;;;;;;20.73;11.02;;;0.20;99.90;;;;;;4919456;29;20212;-80
2023/03/17 03:45:50;;;;;;;19.60;11.10;;;0.10;99.90;;;;;;4920113;29;20243;-81
2023/03/17 03:48:17;;;;;;;19.35;10.95;;;0.30;99.90;;;;;;4906234;29;20212;-82
2023/03/17 03:50:45;;;;;;;19.55;11.00;;;0.30;99.90;;;;;;4904752;29;20216;-81
2023/03/17 03:53:13;;;;;;;19.98;10.70;;;0.30;99.90;;;;;;4920383;29;20204;-81
2023/03/17 03:55:40;;;;;;;26.05;11.18;;;0.40;99.90;;;;;;4908773;29;20548;-80
2023/03/17 03:58:07;;;;;;;16.25;10.13;;;0.30;99.90;;;;;;4913345;29;20201;-81
2023/03/17 04:00:34;;;;;;;22.23;12.18;;;0.30;99.90;;;;;;4920368;29;20528;-81
2023/03/17 04:03:01;;;;;;;21.35;12.07;;;0.30;99.90;;;;;;4911621;29;20485;-82
2023/03/17 04:05:29;;;;;;;18.77;11.10;;;0.20;99.90;;;;;;4914967;29;20533;-80
2023/03/17 04:07:55;;;;;;;13.50;9.80;;;0.30;99.90;;;;;;4909432;29;20213;-79
2023/03/17 04:10:23;;;;;;;15.50;9.48;;;0.30;99.90;;;;;;4917011;29;20212;-80
2023/03/17 04:12:49;;;;;;;22.88;10.25;;;0.30;99.90;;;;;;4919457;29;20475;-82
2023/03/17 04:15:18;;;;;;;15.27;9.68;;;0.30;99.90;;;;;;4905199;29;20228;-82
2023/03/17 04:17:46;;;;;;;20.58;11.50;;;0.30;99.90;;;;;;4911549;29;20284;-82
2023/03/17 04:20:14;;;;;;;18.95;11.15;;;0.30;99.90;;;;;;4907521;29;20453;-82
2023/03/17 04:22:42;;;;;;;17.15;10.75;;;0.20;99.90;;;;;;4922419;29;20208;-82
2023/03/17 04:25:12;;;;;;;13.95;9.80;;;0.20;99.90;;;;;;4917833;29;20209;-82
2023/03/17 04:27:40;;;;;;;12.40;8.73;;;0.20;99.90;;;;;;4917922;29;20277;-82
2023/03/17 04:30:10;;;;;;;23.60;9.90;;;0.20;99.90;;;;;;4923084;29;20212;-81
2023/03/17 04:32:37;;;;;;;16.17;10.38;;;0.20;99.90;;;;;;4894378;29;20220;-82
2023/03/17 04:35:07;;;;;;;15.57;10.52;;;0.20;99.90;;;;;;4923863;29;20208;-83
2023/03/17 04:37:35;;;;;;;20.45;11.63;;;0.10;99.90;;;;;;4918842;29;20237;-83
2023/03/17 04:40:02;;;;;;;15.40;8.82;;;0.20;99.90;;;;;;4924570;29;20534;-82
2023/03/17 04:42:31;;;;;;;19.73;10.98;;;0.20;99.90;;;;;;4913246;29;20213;-81
2023/03/17 04:44:58;;;;;;;15.80;10.85;;;0.20;99.90;;;;;;4914286;29;20219;-80
2023/03/17 04:47:25;;;;;;;13.60;9.00;;;0.10;99.90;;;;;;4921147;29;20217;-82
2023/03/17 04:49:51;;;;;;;22.42;11.80;;;0.20;99.90;;;;;;4917208;29;20220;-80
2023/03/17 04:52:18;;;;;;;20.58;10.15;;;0.20;99.90;;;;;;4915147;29;20212;-83
2023/03/17 04:54:45;;;;;;;21.10;11.90;;;0.20;99.90;;;;;;4919962;29;20227;-82
2023/03/17 04:57:13;;;;;;;16.50;10.88;;;0.20;99.90;;;;;;4907176;29;20229;-81
2023/03/17 04:59:39;;;;;;;17.92;10.68;;;0.20;99.90;;;;;;4925029;29;20233;-82
2023/03/17 05:02:06;;;;;;;16.92;10.43;;;0.20;99.90;;;;;;4922233;29;20212;-82
2023/03/17 05:04:33;;;;;;;11.70;9.75;;;0.30;99.90;;;;;;4914267;29;20212;-83
2023/03/17 05:07:00;;;;;;;19.65;10.70;;;0.20;99.90;;;;;;4916873;29;20205;-82
2023/03/17 05:09:27;;;;;;;20.48;10.80;;;0.20;99.90;;;;;;4918041;29;20232;-82
2023/03/17 05:11:54;;;;;;;17.85;10.63;;;0.20;99.90;;;;;;4909382;29;20201;-82
2023/03/17 05:14:22;;;;;;;17.85;10.50;;;0.20;99.90;;;;;;4916877;29;20212;-82
2023/03/17 05:16:49;;;;;;;17.15;10.80;;;0.20;99.90;;;;;;4917119;29;20240;-81
2023/03/17 05:19:17;;;;;;;17.23;9.95;;;0.20;99.90;;;;;;4908929;29;20260;-82
2023/03/17 05:21:45;;;;;;;22.00;13.15;;;0.20;99.90;;;;;;4914689;29;20509;-81
2023/03/17 05:24:12;;;;;;;17.38;11.20;;;0.30;99.90;;;;;;4916017;29;20213;-81
2023/03/17 05:26:39;;;;;;;17.65;10.00;;;0.40;99.90;;;;;;4918514;29;20357;-82
2023/03/17 05:29:07;;;;;;;15.98;10.65;;;0.40;99.90;;;;;;4922108;29;20497;-80
2023/03/17 05:31:35;;;;;;;17.58;11.68;;;0.50;99.90;;;;;;4918509;29;20295;-80
2023/03/17 05:34:03;;;;;;;14.52;10.70;;;0.50;99.90;;;;;;4911778;29;20208;-81
2023/03/17 05:36:32;;;;;;;14.35;9.82;;;0.60;99.90;;;;;;4907082;29;20556;-80
2023/03/17 05:38:59;;;;;;;19.02;10.90;;;0.60;99.90;;;;;;4915092;29;20327;-80
2023/03/17 05:41:26;;;;;;;22.70;11.48;;;0.80;99.90;;;;;;4912140;29;20268;-81
2023/03/17 05:43:55;;;;;;;17.17;11.60;;;0.80;99.90;;;;;;4912497;29;20205;-79
2023/03/17 05:46:22;;;;;;;22.60;12.52;;;0.80;99.90;;;;;;4917461;29;20458;-81
2023/03/17 05:48:49;;;;;;;23.55;12.55;;;0.90;99.90;;;;;;4919192;29;20256;-79
2023/03/17 05:51:16;;;;;;;28.90;13.43;;;1.20;99.90;;;;;;4907332;29;20221;-82
2023/03/17 05:53:44;;;;;;;14.57;10.93;;;1.30;99.90;;;;;;4912403;29;20241;-81
2023/03/17 05:56:12;;;;;;;19.00;10.95;;;1.40;99.90;;;;;;4923060;29;20213;-80
2023/03/17 05:58:38;;;;;;;29.83;15.85;;;1.60;99.90;;;;;;4932142;29;20205;-81
2023/03/17 06:01:06;;;;;;;20.00;12.43;;;2.00;99.90;;;;;;4926738;29;20199;-81
2023/03/17 06:03:33;;;;;;;39.35;19.88;;;2.60;99.90;;;;;;4934954;29;20277;-80
2023/03/17 06:06:00;;;;;;;24.27;13.10;;;3.00;99.90;;;;;;4907671;29;20223;-79
2023/03/17 06:08:27;;;;;;;23.25;13.50;;;3.40;99.90;;;;;;4913932;29;20247;-79
2023/03/17 06:10:55;;;;;;;22.40;11.70;;;3.70;99.90;;;;;;4922149;29;20801;-79
2023/03/17 06:13:22;;;;;;;14.20;9.95;;;3.90;99.90;;;;;;4922001;29;20208;-80
2023/03/17 06:15:51;;;;;;;33.83;18.95;;;3.90;99.90;;;;;;4909657;29;20209;-81
2023/03/17 06:18:18;;;;;;;19.92;10.40;;;4.40;99.90;;;;;;4920514;29;20204;-79
2023/03/17 06:20:46;;;;;;;23.20;12.35;;;5.10;99.90;;;;;;4908977;29;20208;-80
2023/03/17 06:23:13;;;;;;;23.20;11.77;;;5.60;99.90;;;;;;4921017;29;20257;-80
2023/03/17 06:25:40;;;;;;;19.55;10.20;;;5.90;99.90;;;;;;4918517;29;20256;-80
2023/03/17 06:28:07;;;;;;;24.73;13.18;;;6.00;99.90;;;;;;4920456;29;20267;-80
2023/03/17 06:30:35;;;;;;;22.92;13.35;;;6.20;99.90;;;;;;4912017;29;20504;-79
2023/03/17 06:33:08;;;;;;;17.63;10.68;;;6.70;99.90;;;;;;4921546;29;20503;-80
2023/03/17 06:35:36;;;;;;;28.30;12.20;;;6.60;99.90;;;;;;4917192;29;20273;-80
2023/03/17 06:38:03;;;;;;;28.50;15.25;;;7.40;99.90;;;;;;4923713;29;20222;-79
2023/03/17 06:40:32;;;;;;;32.88;26.40;;;6.70;99.90;;;;;;4933204;29;20224;-81
2023/03/17 06:43:00;;;;;;;18.13;13.05;;;6.50;99.90;;;;;;4924427;29;20239;-81
2023/03/17 06:45:28;;;;;;;31.90;16.33;;;6.60;99.90;;;;;;4920999;29;20268;-80
2023/03/17 06:47:55;;;;;;;27.17;14.05;;;7.20;99.90;;;;;;4921839;29;20213;-79
2023/03/17 06:50:23;;;;;;;31.98;15.55;;;8.00;99.90;;;;;;4912736;29;20223;-81
2023/03/17 06:52:50;;;;;;;25.90;16.40;;;7.80;99.90;;;;;;4903821;29;20196;-81
2023/03/17 06:55:17;;;;;;;23.05;15.68;;;7.70;99.90;;;;;;4917089;29;20219;-82
2023/03/17 06:57:44;;;;;;;25.60;14.52;;;7.50;99.90;;;;;;4918534;29;20284;-81
2023/03/17 07:00:15;;;;;;;29.17;15.30;;;7.70;99.90;;;;;;4916763;29;20372;-80
2023/03/17 07:02:42;;;;;;;25.52;16.58;;;7.70;99.90;;;;;;4906643;29;20200;-81
2023/03/17 07:05:09;;;;;;;23.90;16.05;;;7.50;99.90;;;;;;4916584;29;20204;-81
2023/03/17 07:07:36;;;;;;;25.20;17.10;;;7.20;99.90;;;;;;4910478;29;20458;-79
2023/03/17 07:10:04;;;;;;;24.73;15.60;;;7.30;99.90;;;;;;4909979;29;20275;-79
2023/03/17 07:12:32;;;;;;;27.00;15.50;;;7.30;99.90;;;;;;4916047;29;20256;-81
2023/03/17 07:14:58;;;;;;;23.67;16.65;;;8.00;99.90;;;;;;4916878;29;20215;-80
2023/03/17 07:17:26;;;;;;;21.65;15.25;;;8.80;99.90;;;;;;4911951;29;20583;-80
2023/03/17 07:19:52;;;;;;;20.17;15.80;;;8.70;99.90;;;;;;4918215;29;20212;-79
2023/03/17 07:22:19;;;;;;;19.40;14.98;;;8.40;99.90;;;;;;4913773;29;20234;-78
2023/03/17 07:24:47;;;;;;;22.40;15.77;;;8.80;99.90;;;;;;4913959;29;20251;-79
2023/03/17 07:27:15;;;;;;;26.02;15.65;;;8.70;99.90;;;;;;4918935;29;20304;-80
2023/03/17 07:29:42;;;;;;;24.20;17.15;;;8.70;99.90;;;;;;4914551;29;20216;-80
2023/03/17 07:32:10;;;;;;;27.33;13.50;;;8.90;99.90;;;;;;4914315;29;20209;-84
2023/03/17 07:34:37;;;;;;;27.98;15.63;;;8.90;99.90;;;;;;4920285;29;20256;-78
2023/03/17 07:37:05;;;;;;;25.08;15.25;;;8.30;99.90;;;;;;4914754;29;20402;-79
2023/03/17 07:39:32;;;;;;;17.83;14.93;;;8.30;99.90;;;;;;4917039;29;20508;-81
2023/03/17 07:41:59;;;;;;;28.75;16.30;;;8.60;99.90;;;;;;4914623;29;20212;-79
2023/03/17 07:44:27;;;;;;;28.38;14.00;;;9.00;99.90;;;;;;4917075;29;20216;-80
2023/03/17 07:46:55;;;;;;;16.00;12.50;;;9.10;99.90;;;;;;4906556;29;20447;-79
2023/03/17 07:49:22;;;;;;;24.27;14.88;;;9.10;99.90;;;;;;4911076;29;20476;-80
2023/03/17 07:52:07;;;;;;;21.85;13.50;;;8.80;99.90;;;;;;4917142;29;20224;-78
2023/03/17 07:54:35;;;;;;;24.30;14.68;;;9.50;99.90;;;;;;4920576;29;20216;-79
2023/03/17 07:57:04;;;;;;;22.25;13.82;;;9.80;99.90;;;;;;4919444;29;20501;-78
2023/03/17 07:59:31;;;;;;;21.88;12.80;;;9.30;99.90;;;;;;4918928;29;20224;-79
2023/03/17 08:02:01;;;;;;;21.33;12.80;;;9.50;99.90;;;;;;4911762;29;20201;-78
2023/03/17 08:04:28;;;;;;;26.60;13.23;;;9.60;99.90;;;;;;4923239;29;20280;-80
2023/03/17 08:06:58;;;;;;;19.75;13.73;;;10.00;99.90;;;;;;4905417;29;20242;-80
2023/03/17 08:09:28;;;;;;;18.40;12.90;;;9.90;99.90;;;;;;4921049;29;20215;-79
2023/03/17 08:11:55;;;;;;;21.05;12.30;;;10.90;99.90;;;;;;4910516;29;20211;-78
2023/03/17 08:14:23;;;;;;;17.60;11.88;;;11.10;99.90;;;;;;4908454;29;20436;-78
2023/03/17 08:16:50;;;;;;;15.75;10.63;;;11.60;99.90;;;;;;4905820;29;20264;-79
2023/03/17 08:19:17;;;;;;;20.90;11.95;;;11.70;99.90;;;;;;4919486;29;20221;-78
2023/03/17 08:21:46;;;;;;;20.95;12.07;;;11.10;99.90;;;;;;4916254;29;20208;-79
2023/03/17 08:24:13;;;;;;;20.58;11.27;;;11.40;99.90;;;;;;4907220;29;20533;-78
2023/03/17 08:26:40;;;;;;;16.10;10.45;;;11.50;99.90;;;;;;4915294;29;20222;-79
2023/03/17 08:29:08;;;;;;;21.20;12.18;;;11.30;99.90;;;;;;4914249;29;20227;-79
2023/03/17 08:31:36;;;;;;;14.70;9.65;;;11.90;99.90;;;;;;4909851;29;20215;-78
2023/03/17 08:34:03;;;;;;;19.73;10.75;;;11.50;99.90;;;;;;4908519;29;20220;-77
2023/03/17 08:36:30;;;;;;;11.90;8.75;;;11.60;99.90;;;;;;4913006;29;20239;-78
2023/03/17 08:38:58;;;;;;;20.73;9.93;;;11.70;99.90;;;;;;4913736;29;20279;-80
2023/03/17 08:41:27;;;;;;;18.05;10.40;;;11.40;99.90;;;;;;4919538;29;20210;-79
2023/03/17 08:43:54;;;;;;;14.35;10.95;;;11.80;99.90;;;;;;4908809;29;20492;-77
2023/03/17 08:46:30;;;;;;;17.80;9.23;;;12.10;99.90;;;;;;4909319;29;20215;-78
2023/03/17 08:48:58;;;;;;;19.50;10.10;;;11.70;99.90;;;;;;4901140;29;20212;-77
2023/03/17 08:51:28;;;;;;;13.02;8.38;;;11.30;99.90;;;;;;4901544;29;20223;-77
2023/03/17 08:53:56;;;;;;;20.45;9.48;;;11.20;99.90;;;;;;4915823;29;20251;-78
2023/03/17 08:56:23;;;;;;;16.17;9.35;;;10.40;99.90;;;;;;4914668;29;20235;-77
2023/03/17 08:58:53;;;;;;;17.77;9.23;;;10.30;99.90;;;;;;4911167;29;20210;-78
2023/03/17 09:01:23;;;;;;;15.20;8.93;;;10.60;99.90;;;;;;4909609;29;20231;-78
2023/03/17 09:03:54;;;;;;;15.40;9.68;;;10.70;99.90;;;;;;4907323;29;20402;-78
2023/03/17 09:06:24;;;;;;;13.27;9.50;;;11.10;99.90;;;;;;4916049;29;20213;-78
2023/03/17 09:08:54;;;;;;;16.05;7.28;;;11.00;99.90;;;;;;4914466;29;20212;-78
2023/03/17 09:11:24;;;;;;;13.32;8.27;;;10.90;99.90;;;;;;4914771;29;20217;-77
2023/03/17 09:13:52;;;;;;;10.63;9.13;;;11.20;99.90;;;;;;4906596;29;20215;-80
2023/03/17 09:16:19;;;;;;;15.25;9.52;;;11.60;99.90;;;;;;4910324;29;20533;-78
2023/03/17 09:18:46;;;;;;;11.90;8.10;;;11.50;99.90;;;;;;4910631;29;20456;-77
2023/03/17 09:21:14;;;;;;;17.33;9.57;;;11.70;99.90;;;;;;4911499;29;20443;-77
2023/03/17 09:23:41;;;;;;;11.05;7.00;;;11.50;99.90;;;;;;4922211;29;20375;-78
2023/03/17 09:26:09;;;;;;;16.25;8.63;;;12.30;99.90;;;;;;4920662;29;20256;-78
2023/03/17 09:28:36;;;;;;;12.00;7.85;;;12.70;99.90;;;;;;4913481;29;20580;-77
2023/03/17 09:31:05;;;;;;;11.75;7.90;;;12.70;99.90;;;;;;4907023;29;20386;-78
2023/03/17 09:33:32;;;;;;;12.18;8.38;;;12.90;99.90;;;;;;4914289;29;20260;-77
2023/03/17 09:35:59;;;;;;;13.68;7.15;;;13.20;99.90;;;;;;4916801;29;20217;-78
2023/03/17 09:38:26;;;;;;;8.27;6.13;;;12.70;99.90;;;;;;4922077;29;20284;-76
2023/03/17 09:41:16;;;;;;;10.15;6.78;;;12.10;99.90;;;;;;4914716;29;20239;-77
2023/03/17 09:44:06;;;;;;;6.90;6.20;;;11.20;99.90;;;;;;4911770;29;20255;-79
2023/03/17 09:47:07;;;;;;;9.65;6.20;;;10.90;99.90;;;;;;4919862;29;20212;-78
2023/03/17 09:49:45;;;;;;;6.50;5.65;;;10.70;99.90;;;;;;4907700;29;20218;-77
2023/03/17 09:52:18;;;;;;;6.63;5.93;;;11.20;99.90;;;;;;4914918;29;20233;-78
2023/03/17 09:54:48;;;;;;;10.80;6.10;;;11.20;99.90;;;;;;4917333;29;20214;-81
2023/03/17 09:57:31;;;;;;;8.68;5.90;;;10.90;99.90;;;;;;4909592;29;20299;-79
2023/03/17 10:00:17;;;;;;;6.18;5.55;;;10.40;99.90;;;;;;4920601;29;20243;-78
2023/03/17 10:02:46;;;;;;;6.38;4.57;;;10.10;99.90;;;;;;4917663;29;20410;-79
2023/03/17 10:05:25;;;;;;;8.00;5.03;;;9.80;99.90;;;;;;4921968;29;20216;-77
2023/03/17 10:08:19;;;;;;;12.48;5.90;;;10.10;99.90;;;;;;4921677;29;20243;-77
2023/03/17 10:11:21;;;;;;;5.72;4.05;;;10.60;99.90;;;;;;4921588;29;20208;-77
2023/03/17 10:13:54;;;;;;;4.30;3.78;;;11.10;99.90;;;;;;4912767;29;20214;-78
2023/03/17 10:16:41;;;;;;;6.45;4.43;;;11.10;99.90;;;;;;4916478;29;20205;-79
2023/03/17 10:19:34;;;;;;;7.75;3.78;;;11.10;99.90;;;;;;4908578;29;20221;-79
2023/03/17 10:22:15;;;;;;;6.53;4.53;;;11.20;99.90;;;;;;4914508;29;20220;-76
2023/03/17 10:24:47;;;;;;;7.18;4.45;;;11.30;99.90;;;;;;4914316;29;20210;-77
2023/03/17 10:27:16;;;;;;;6.65;3.95;;;11.10;99.90;;;;;;4910514;29;20261;-78
2023/03/17 10:29:43;;;;;;;5.85;4.38;;;11.00;99.90;;;;;;4914984;29;20479;-79
2023/03/17 10:32:14;;;;;;;6.40;4.03;;;11.20;99.90;;;;;;4921714;29;20304;-78
2023/03/17 10:34:42;;;;;;;8.57;4.35;;;11.10;99.90;;;;;;4920622;29;20423;-79
2023/03/17 10:37:18;;;;;;;5.65;4.65;;;10.90;99.90;;;;;;4921907;29;20282;-80
2023/03/17 10:39:50;;;;;;;7.05;5.47;;;10.90;99.90;;;;;;4917134;29;20270;-79
2023/03/17 10:42:25;;;;;;;3.95;3.55;;;11.00;99.90;;;;;;4909001;29;20571;-78
2023/03/17 10:44:53;;;;;;;4.20;3.80;;;11.00;99.90;;;;;;4913088;29;20217;-77
2023/03/17 10:47:28;;;;;;;4.32;3.85;;;10.80;99.90;;;;;;4909607;29;20221;-80
2023/03/17 10:49:57;;;;;;;4.72;3.70;;;10.80;99.90;;;;;;4908803;29;20223;-78
2023/03/17 10:52:29;;;;;;;6.13;3.78;;;10.80;99.90;;;;;;4913989;29;20421;-77
2023/03/17 10:55:04;;;;;;;5.20;4.70;;;10.90;99.90;;;;;;4916303;29;20511;-76
2023/03/17 10:57:34;;;;;;;5.88;4.53;;;10.70;99.90;;;;;;4919827;29;20293;-78
2023/03/17 11:00:05;;;;;;;4.95;3.00;;;10.60;99.90;;;;;;4916799;29;20264;-78
2023/03/17 11:02:44;;;;;;;3.80;3.50;;;10.80;99.90;;;;;;4914772;29;20254;-77
2023/03/17 11:05:27;;;;;;;5.28;3.65;;;11.10;99.90;;;;;;4919860;29;20193;-78
2023/03/17 11:08:16;;;;;;;6.13;4.28;;;11.10;99.90;;;;;;4934901;29;20185;-78
2023/03/17 11:10:43;;;;;;;4.18;3.65;;;11.20;99.90;;;;;;4934983;29;20188;-78
2023/03/17 11:13:16;;;;;;;5.72;3.63;;;11.20;99.90;;;;;;4934744;29;20190;-79
2023/03/17 11:15:51;;;;;;;4.38;3.95;;;11.30;99.90;;;;;;4921582;29;20239;-78
2023/03/17 11:18:24;;;;;;;3.97;3.50;;;11.20;99.90;;;;;;4915439;29;20296;-78
2023/03/17 11:21:07;;;;;;;6.70;3.95;;;11.20;99.90;;;;;;4916751;29;20206;-77
2023/03/17 11:23:37;;;;;;;5.55;4.30;;;11.30;99.90;;;;;;4917007;29;20454;-79
2023/03/17 11:26:15;;;;;;;3.85;3.47;;;11.60;99.90;;;;;;4912234;29;20424;-79
2023/03/17 11:29:11;;;;;;;5.95;3.47;;;11.70;99.90;;;;;;4919164;29;20212;-79
2023/03/17 11:31:54;;;;;;;5.53;3.13;;;11.60;99.90;;;;;;4915018;29;20214;-81
2023/03/17 11:34:34;;;;;;;8.50;4.35;;;11.50;99.90;;;;;;4913770;29;20514;-77
2023/03/17 11:37:09;;;;;;;3.70;3.40;;;11.60;99.90;;;;;;4909469;29;20230;-78
2023/03/17 11:39:56;;;;;;;7.68;4.82;;;11.80;99.70;;;;;;4906520;29;20210;-78
2023/03/17 11:42:36;;;;;;;4.25;3.30;;;11.80;99.70;;;;;;4905057;29;20213;-79
2023/03/17 11:45:19;;;;;;;5.38;4.10;;;11.90;99.00;;;;;;4908512;29;20545;-79
2023/03/17 11:47:55;;;;;;;4.18;3.13;;;11.80;98.30;;;;;;4916887;29;20253;-77
2023/03/17 11:50:57;;;;;;;8.93;4.13;;;11.80;99.10;;;;;;4915044;29;20275;-78
2023/03/17 11:53:57;;;;;;;5.07;3.08;;;11.90;99.50;;;;;;4914751;29;20407;-79
2023/03/17 11:56:47;;;;;;;6.75;4.13;;;11.90;99.00;;;;;;4920915;29;20285;-78
2023/03/17 11:59:38;;;;;;;3.85;3.05;;;12.10;99.50;;;;;;4907022;29;20260;-78
2023/03/17 12:02:24;;;;;;;12.77;3.75;;;12.30;97.60;;;;;;4913765;29;20209;-77
2023/03/17 12:05:03;;;;;;;7.65;3.60;;;12.20;99.70;;;;;;4912497;29;20211;-79
2023/03/17 12:07:40;;;;;;;3.95;3.10;;;12.30;98.80;;;;;;4912723;29;20220;-78
2023/03/17 12:10:50;;;;;;;4.35;3.28;;;12.30;97.50;;;;;;4909356;29;20503;-79
2023/03/17 12:13:28;;;;;;;5.20;3.78;;;12.20;96.90;;;;;;4912800;29;20217;-80
2023/03/17 12:16:02;;;;;;;4.32;3.30;;;12.10;96.60;;;;;;4919814;29;20221;-78
2023/03/17 12:19:04;;;;;;;4.30;3.72;;;12.00;97.30;;;;;;4919821;29;20235;-81
2023/03/17 12:21:51;;;;;;;6.07;3.15;;;12.00;98.30;;;;;;4914389;29;20264;-81
2023/03/17 12:24:39;;;;;;;8.40;3.30;;;12.10;97.30;;;;;;4910627;29;20276;-76
2023/03/17 12:27:18;;;;;;;3.50;3.20;;;12.00;98.20;;;;;;4911927;29;20211;-78
2023/03/17 12:29:57;;;;;;;3.33;2.97;;;12.20;98.10;;;;;;4906915;29;20214;-79
2023/03/17 12:32:51;;;;;;;4.68;2.80;;;12.40;97.50;;;;;;4909315;29;20722;-80
2023/03/17 12:35:33;;;;;;;4.70;3.15;;;12.30;97.40;;;;;;4927154;29;20283;-79
2023/03/17 12:38:18;;;;;;;3.47;3.10;;;12.40;96.80;;;;;;4920853;29;20239;-79
2023/03/17 12:40:57;;;;;;;4.88;3.25;;;12.20;97.50;;;;;;4924940;29;20218;-81
2023/03/17 12:43:44;;;;;;;5.18;3.28;;;12.30;96.20;;;;;;4922715;29;20216;-80
2023/03/17 12:46:18;;;;;;;4.07;3.63;;;12.30;96.20;;;;;;4910544;29;20233;-79
2023/03/17 12:49:13;;;;;;;12.95;5.32;;;12.20;97.30;;;;;;4910720;29;20212;-79
2023/03/17 12:51:55;;;;;;;9.57;4.57;;;12.20;97.60;;;;;;4915226;29;20575;-78
2023/03/17 12:54:32;;;;;;;11.27;4.10;;;12.10;96.80;;;;;;4921364;29;20253;-80
2023/03/17 12:57:11;;;;;;;6.45;3.58;;;12.00;98.10;;;;;;4927296;29;20226;-79
2023/03/17 12:59:42;;;;;;;6.15;3.88;;;12.00;98.10;;;;;;4916066;29;20245;-79